createdAt,value
2018-10-02T00:02:02.471Z,98791.84
2018-10-02T00:04:31.592Z,98791.28
2018-10-02T00:07:00.749Z,98794.97
2018-10-02T00:09:29.902Z,98789.08
2018-10-02T00:12:04.264Z,98799.73
2018-10-02T00:14:33.411Z,98799.27
2018-10-02T00:17:02.536Z,98790.98
2018-10-02T00:19:31.674Z,98790.46
2018-10-02T00:22:00.812Z,98786.98
2018-10-02T00:24:29.983Z,98783.28
2018-10-02T00:26:59.151Z,98778.18
2018-10-02T00:29:28.300Z,98784.62
2018-10-02T00:31:57.525Z,98783.28
2018-10-02T00:34:26.639Z,98787.28
2018-10-02T00:36:56.172Z,98781.66
2018-10-02T00:39:25.324Z,98784.06
2018-10-02T00:41:54.431Z,98788.61
2018-10-02T00:44:23.581Z,98782.17
2018-10-02T00:46:52.745Z,98779.29
2018-10-02T00:49:21.880Z,98782.47
2018-10-02T00:51:51.044Z,98778.95
2018-10-02T00:54:20.192Z,98782.59
2018-10-02T00:56:49.369Z,98779.86
2018-10-02T00:59:18.599Z,98785.88
2018-10-02T01:01:47.745Z,98788.48
2018-10-02T01:04:16.910Z,98786.07
2018-10-02T01:06:46.028Z,98783.20
2018-10-02T01:09:15.233Z,98786.64
2018-10-02T01:11:44.524Z,98786.47
2018-10-02T01:14:13.881Z,98783.50
2018-10-02T01:16:43.042Z,98775.77
2018-10-02T01:19:12.201Z,98775.77
2018-10-02T01:21:41.370Z,98775.77
2018-10-02T01:24:10.554Z,98772.29
2018-10-02T01:26:39.863Z,98770.91
2018-10-02T01:29:09.230Z,98763.39
2018-10-02T01:31:38.368Z,98762.83
2018-10-02T01:34:07.553Z,98763.34
2018-10-02T01:36:36.787Z,98752.17
2018-10-02T01:39:07.717Z,98759.57
2018-10-02T01:41:36.866Z,98761.97
2018-10-02T01:44:06.262Z,98768.32
2018-10-02T01:46:36.132Z,98766.99
2018-10-02T01:49:05.409Z,98770.69
2018-10-02T01:51:34.682Z,98770.12
2018-10-02T01:54:03.808Z,98774.36
2018-10-02T01:56:32.940Z,98770.31
2018-10-02T01:59:02.080Z,98770.84
2018-10-02T02:01:31.233Z,98771.05
2018-10-02T02:04:00.362Z,98775.24
2018-10-02T02:06:29.510Z,98776.33
2018-10-02T02:08:58.624Z,98777.61
2018-10-02T02:11:27.769Z,98783.23
2018-10-02T02:13:56.918Z,98777.91
2018-10-02T02:16:26.111Z,98785.30
2018-10-02T02:18:55.241Z,98782.63
2018-10-02T02:21:24.484Z,98789.28
2018-10-02T02:23:53.640Z,98786.45
2018-10-02T02:26:22.777Z,98784.27
2018-10-02T02:28:52.106Z,98787.44
2018-10-02T02:31:21.256Z,98789.88
2018-10-02T02:33:50.416Z,98790.84
2018-10-02T02:36:19.579Z,98790.91
2018-10-02T02:38:48.713Z,98794.03
2018-10-02T02:41:17.862Z,98791.88
2018-10-02T02:43:47.019Z,98800.44
2018-10-02T02:46:16.162Z,98805.76
2018-10-02T02:48:50.545Z,98804.67
2018-10-02T02:51:19.963Z,98800.38
2018-10-02T02:53:49.523Z,98800.38
2018-10-02T02:56:18.708Z,98804.16
2018-10-02T02:58:47.855Z,98811.69
2018-10-02T03:01:16.997Z,98807.09
2018-10-02T03:03:46.172Z,98818.39
2018-10-02T03:06:15.338Z,98814.15
2018-10-02T03:08:44.649Z,98813.11
2018-10-02T03:11:13.801Z,98810.97
2018-10-02T03:13:42.977Z,98808.09
2018-10-02T03:16:12.131Z,98809.12
2018-10-02T03:18:41.272Z,98813.68
2018-10-02T03:21:10.396Z,98814.25
2018-10-02T03:23:39.507Z,98814.74
2018-10-02T03:26:08.759Z,98819.92
2018-10-02T03:28:38.068Z,98816.64
2018-10-02T03:31:07.510Z,98813.98
2018-10-02T03:33:36.714Z,98816.64
2018-10-02T03:36:05.891Z,98820.78
2018-10-02T03:38:35.101Z,98818.08
2018-10-02T03:41:04.259Z,98822.59
2018-10-02T03:43:33.442Z,98825.03
2018-10-02T03:46:02.552Z,98818.64
2018-10-02T03:48:31.712Z,98817.31
2018-10-02T03:51:00.909Z,98819.97
2018-10-02T03:53:30.029Z,98819.70
2018-10-02T03:55:59.191Z,98825.30
2018-10-02T03:58:28.330Z,98818.94
2018-10-02T04:00:57.478Z,98821.35
2018-10-02T04:03:26.634Z,98821.70
2018-10-02T04:05:55.794Z,98821.65
2018-10-02T04:08:24.913Z,98823.03
2018-10-02T04:10:54.071Z,98825.99
2018-10-02T04:13:24.350Z,98827.84
2018-10-02T04:15:53.471Z,98828.77
2018-10-02T04:18:22.625Z,98833.47
2018-10-02T04:20:51.839Z,98840.55
2018-10-02T04:23:20.978Z,98848.03
2018-10-02T04:25:50.149Z,98849.56
2018-10-02T04:28:19.317Z,98849.27
2018-10-02T04:30:48.389Z,98851.30
2018-10-02T04:33:17.600Z,98852.58
2018-10-02T04:35:46.749Z,98854.54
2018-10-02T04:38:15.872Z,98846.60
2018-10-02T04:40:45.001Z,98863.50
2018-10-02T04:43:14.183Z,98859.05
2018-10-02T04:45:43.357Z,98863.39
2018-10-02T04:48:12.473Z,98870.16
2018-10-02T04:50:41.650Z,98878.55
2018-10-02T04:53:10.764Z,98883.61
2018-10-02T04:55:39.977Z,98884.59
2018-10-02T04:58:09.311Z,98887.66
2018-10-02T05:00:38.471Z,98893.09
2018-10-02T05:03:07.819Z,98888.70
2018-10-02T05:05:36.968Z,98900.22
2018-10-02T05:08:06.234Z,98915.84
2018-10-02T05:10:35.393Z,98923.42
2018-10-02T05:13:04.539Z,98930.95
2018-10-02T05:15:33.748Z,98939.80
2018-10-02T05:18:02.873Z,98942.14
2018-10-02T05:20:32.535Z,98939.13
2018-10-02T05:23:01.669Z,98950.40
2018-10-02T05:25:30.823Z,98956.48
2018-10-02T05:27:59.932Z,98956.90
2018-10-02T05:30:29.176Z,98951.52
2018-10-02T05:32:58.499Z,98954.64
2018-10-02T05:35:27.639Z,98955.45
2018-10-02T05:37:56.763Z,98961.57
2018-10-02T05:40:25.914Z,98967.01
2018-10-02T05:42:55.136Z,98974.16
2018-10-02T05:45:24.267Z,98975.22
2018-10-02T05:47:53.409Z,98982.48
2018-10-02T05:50:22.599Z,98993.70
2018-10-02T05:52:51.909Z,98991.09
2018-10-02T05:55:21.056Z,98998.02
2018-10-02T05:57:50.256Z,99005.84
2018-10-02T06:00:19.452Z,99013.40
2018-10-02T06:02:48.653Z,99024.86
2018-10-02T06:05:17.787Z,99022.14
2018-10-02T06:07:46.930Z,99033.53
2018-10-02T06:10:16.087Z,99027.02
2018-10-02T06:12:45.228Z,99021.27
2018-10-02T06:15:14.338Z,99023.22
2018-10-02T06:17:43.580Z,99026.40
2018-10-02T06:20:12.724Z,99032.53
2018-10-02T06:22:41.868Z,99039.31
2018-10-02T06:25:11.025Z,99041.77
2018-10-02T06:27:40.141Z,99046.52
2018-10-02T06:30:09.354Z,99052.34
2018-10-02T06:32:38.499Z,99060.08
2018-10-02T06:35:07.892Z,99058.10
2018-10-02T06:37:37.016Z,99071.81
2018-10-02T06:40:06.349Z,99064.50
2018-10-02T06:42:35.533Z,99072.25
2018-10-02T06:45:04.740Z,99062.99
2018-10-02T06:47:33.953Z,99078.39
2018-10-02T06:50:03.126Z,99086.14
2018-10-02T06:52:32.480Z,99084.94
2018-10-02T06:55:01.451Z,99088.72
2018-10-02T06:57:30.660Z,99088.99
2018-10-02T06:59:59.833Z,99091.45
2018-10-02T07:02:29.042Z,99096.53
2018-10-02T07:04:58.104Z,99102.41
2018-10-02T07:07:27.238Z,99103.80
2018-10-02T07:09:56.393Z,99099.67
2018-10-02T07:12:25.567Z,99111.20
2018-10-02T07:14:54.687Z,99102.98
2018-10-02T07:17:24.157Z,99106.19
2018-10-02T07:19:53.305Z,99109.41
2018-10-02T07:22:22.445Z,99111.38
2018-10-02T07:24:51.578Z,99115.02
2018-10-02T07:27:20.851Z,99116.46
2018-10-02T07:29:49.863Z,99108.58
2018-10-02T07:32:18.993Z,99115.08
2018-10-02T07:34:48.152Z,99120.06
2018-10-02T07:37:17.262Z,99121.80
2018-10-02T07:39:46.464Z,99127.14
2018-10-02T07:42:15.637Z,99125.23
2018-10-02T07:44:44.709Z,99133.97
2018-10-02T07:47:13.857Z,99134.42
2018-10-02T07:49:47.010Z,99129.80
2018-10-02T07:52:16.138Z,99131.23
2018-10-02T07:54:45.256Z,99134.31
2018-10-02T07:57:14.436Z,99130.51
2018-10-02T07:59:44.598Z,99136.77
2018-10-02T08:02:14.070Z,99137.91
2018-10-02T08:04:43.263Z,99139.66
2018-10-02T08:07:12.409Z,99149.39
2018-10-02T08:09:41.534Z,99146.13
2018-10-02T08:12:10.726Z,99145.66
2018-10-02T08:14:39.893Z,99143.19
2018-10-02T08:17:09.141Z,99140.73
2018-10-02T08:19:38.431Z,99144.02
2018-10-02T08:22:07.643Z,99149.44
2018-10-02T08:24:36.958Z,99142.63
2018-10-02T08:27:06.335Z,99139.28
2018-10-02T08:29:35.560Z,99146.11
2018-10-02T08:32:04.785Z,99142.61
2018-10-02T08:34:33.956Z,99145.58
2018-10-02T08:37:03.106Z,99156.89
2018-10-02T08:39:32.347Z,99156.31
2018-10-02T08:42:01.613Z,99161.27
2018-10-02T08:44:30.800Z,99165.20
2018-10-02T08:46:59.860Z,99163.90
2018-10-02T08:49:29.020Z,99163.13
2018-10-02T08:51:58.226Z,99170.61
2018-10-02T08:54:27.453Z,99169.03
2018-10-02T08:56:56.796Z,99165.35
2018-10-02T08:59:25.993Z,99164.64
2018-10-02T09:01:55.137Z,99164.26
2018-10-02T09:04:24.282Z,99159.25
2018-10-02T09:06:53.460Z,99154.03
2018-10-02T09:09:22.583Z,99156.73
2018-10-02T09:11:51.811Z,99158.88
2018-10-02T09:14:20.973Z,99158.08
2018-10-02T09:16:50.253Z,99156.06
2018-10-02T09:19:19.304Z,99144.14
2018-10-02T09:21:48.492Z,99148.50
2018-10-02T09:24:17.633Z,99149.07
2018-10-02T09:26:46.796Z,99148.98
2018-10-02T09:29:15.957Z,99150.88
2018-10-02T09:31:50.294Z,99162.34
2018-10-02T09:34:24.710Z,99154.54
2018-10-02T09:36:59.070Z,99157.55
2018-10-02T09:39:33.424Z,99157.83
2018-10-02T09:42:08.175Z,99174.56
2018-10-02T09:44:37.354Z,99169.33
2018-10-02T09:47:06.851Z,99164.67
2018-10-02T09:49:37.087Z,99163.63
2018-10-02T09:52:06.273Z,99155.99
2018-10-02T09:54:35.453Z,99156.78
2018-10-02T09:57:04.650Z,99154.53
2018-10-02T09:59:33.790Z,99161.84
2018-10-02T10:02:08.310Z,99151.20
2018-10-02T10:04:37.490Z,99161.19
2018-10-02T10:07:06.816Z,99163.02
2018-10-02T10:09:35.972Z,99169.06
2018-10-02T10:12:05.133Z,99166.41
2018-10-02T10:14:34.285Z,99155.92
2018-10-02T10:17:03.569Z,99146.87
2018-10-02T10:19:32.665Z,99148.77
2018-10-02T10:22:01.846Z,99144.67
2018-10-02T10:24:31.065Z,99144.53
2018-10-02T10:27:00.225Z,99139.76
2018-10-02T10:29:29.461Z,99145.92
2018-10-02T10:31:58.622Z,99146.30
2018-10-02T10:34:27.816Z,99146.52
2018-10-02T10:36:56.954Z,99146.15
2018-10-02T10:39:26.105Z,99145.35
2018-10-02T10:41:55.284Z,99144.81
2018-10-02T10:44:24.478Z,99142.91
2018-10-02T10:46:53.676Z,99134.56
2018-10-02T10:49:22.824Z,99136.69
2018-10-02T10:51:51.986Z,99126.06
2018-10-02T10:54:21.121Z,99121.45
2018-10-02T10:56:50.278Z,99123.17
2018-10-02T10:59:19.422Z,99114.45
2018-10-02T11:01:48.569Z,99111.25
2018-10-02T11:04:17.774Z,99104.60
2018-10-02T11:06:46.965Z,99097.27
2018-10-02T11:09:16.107Z,99101.95
2018-10-02T11:11:45.305Z,99109.80
2018-10-02T11:14:14.459Z,99090.86
2018-10-02T11:16:43.612Z,99088.08
2018-10-02T11:19:12.930Z,99087.45
2018-10-02T11:21:42.129Z,99090.11
2018-10-02T11:24:11.340Z,99101.09
2018-10-02T11:26:40.482Z,99090.94
2018-10-02T11:29:09.622Z,99088.76
2018-10-02T11:31:38.829Z,99082.94
2018-10-02T11:34:07.969Z,99081.37
2018-10-02T11:36:37.185Z,99086.17
2018-10-02T11:39:07.483Z,99072.58
2018-10-02T11:41:36.644Z,99079.02
2018-10-02T11:44:05.920Z,99081.77
2018-10-02T11:46:35.021Z,99080.13
2018-10-02T11:49:04.208Z,99068.27
2018-10-02T11:51:33.338Z,99060.05
2018-10-02T11:54:02.502Z,99059.58
2018-10-02T11:56:31.628Z,99063.45
2018-10-02T11:59:01.558Z,99069.04
2018-10-02T12:01:30.666Z,99063.84
2018-10-02T12:03:59.850Z,99063.50
2018-10-02T12:06:29.115Z,99075.72
2018-10-02T12:08:58.245Z,99074.78
2018-10-02T12:11:27.426Z,99067.30
2018-10-02T12:13:56.585Z,99071.16
2018-10-02T12:16:25.676Z,99076.48
2018-10-02T12:18:54.820Z,99069.77
2018-10-02T12:21:23.967Z,99074.81
2018-10-02T12:23:53.568Z,99067.34
2018-10-02T12:26:22.778Z,99067.19
2018-10-02T12:28:51.929Z,99065.39
2018-10-02T12:31:21.171Z,99066.56
2018-10-02T12:33:50.398Z,99068.94
2018-10-02T12:36:19.669Z,99065.86
2018-10-02T12:38:48.984Z,99066.16
2018-10-02T12:41:18.166Z,99060.05
2018-10-02T12:43:47.439Z,99053.78
2018-10-02T12:46:16.620Z,99057.33
2018-10-02T12:48:46.197Z,99054.91
2018-10-02T12:51:15.399Z,99054.53
2018-10-02T12:53:44.812Z,99057.70
2018-10-02T12:56:13.950Z,99061.95
2018-10-02T12:58:43.080Z,99060.61
2018-10-02T13:01:12.193Z,99045.92
2018-10-02T13:03:41.357Z,99056.23
2018-10-02T13:06:10.545Z,99047.57
2018-10-02T13:08:39.700Z,99043.11
2018-10-02T13:11:09.102Z,99036.09
2018-10-02T13:13:38.346Z,99038.66
2018-10-02T13:16:07.521Z,99037.55
2018-10-02T13:18:37.298Z,99039.27
2018-10-02T13:21:07.432Z,99034.48
2018-10-02T13:23:36.564Z,99032.66
2018-10-02T13:26:05.845Z,99030.87
2018-10-02T13:28:34.983Z,99032.37
2018-10-02T13:31:04.129Z,99031.09
2018-10-02T13:33:33.498Z,99014.73
2018-10-02T13:36:03.464Z,99023.03
2018-10-02T13:38:32.623Z,99016.89
2018-10-02T13:41:02.317Z,99017.67
2018-10-02T13:43:31.656Z,99004.27
2018-10-02T13:46:00.804Z,99012.70
2018-10-02T13:48:29.952Z,99008.25
2018-10-02T13:50:59.117Z,99010.52
2018-10-02T13:53:28.233Z,99005.88
2018-10-02T13:55:57.479Z,99004.73
2018-10-02T13:58:26.582Z,99001.59
2018-10-02T14:00:55.716Z,99006.73
2018-10-02T14:03:24.874Z,98998.06
2018-10-02T14:05:54.081Z,98998.08
2018-10-02T14:08:23.258Z,99000.25
2018-10-02T14:10:52.516Z,98997.61
2018-10-02T14:13:21.644Z,98991.78
2018-10-02T14:15:50.776Z,98998.47
2018-10-02T14:18:19.929Z,98991.85
2018-10-02T14:20:49.103Z,98998.14
2018-10-02T14:23:18.238Z,98995.77
2018-10-02T14:25:47.396Z,98997.41
2018-10-02T14:28:16.558Z,98995.92
2018-10-02T14:30:45.707Z,98997.95
2018-10-02T14:33:14.893Z,99004.09
2018-10-02T14:35:44.030Z,98994.15
2018-10-02T14:38:13.162Z,99001.06
2018-10-02T14:40:42.595Z,99002.94
2018-10-02T14:43:11.812Z,99001.38
2018-10-02T14:45:41.877Z,99005.35
2018-10-02T14:48:11.156Z,99000.88
2018-10-02T14:50:40.330Z,99002.39
2018-10-02T14:53:09.627Z,98993.32
2018-10-02T14:55:38.776Z,98991.89
2018-10-02T14:58:07.956Z,98989.19
2018-10-02T15:00:37.128Z,98993.67
2018-10-02T15:03:06.450Z,98992.27
2018-10-02T15:05:35.735Z,98995.14
2018-10-02T15:08:04.886Z,98988.75
2018-10-02T15:10:35.471Z,98990.78
2018-10-02T15:13:04.625Z,98987.54
2018-10-02T15:15:33.926Z,98996.41
2018-10-02T15:18:03.086Z,98991.22
2018-10-02T15:20:32.208Z,98982.93
2018-10-02T15:23:01.327Z,98986.36
2018-10-02T15:25:30.794Z,98979.37
2018-10-02T15:27:59.962Z,98968.20
2018-10-02T15:30:29.086Z,98974.06
2018-10-02T15:32:58.250Z,98983.23
2018-10-02T15:35:27.381Z,98972.98
2018-10-02T15:37:56.749Z,98966.03
2018-10-02T15:40:25.839Z,98966.84
2018-10-02T15:42:55.000Z,98954.98
2018-10-02T15:45:24.135Z,98950.56
2018-10-02T15:47:53.281Z,98960.27
2018-10-02T15:50:22.472Z,98957.52
2018-10-02T15:52:51.657Z,98957.80
2018-10-02T15:55:20.825Z,98957.35
2018-10-02T15:57:49.948Z,98951.28
2018-10-02T16:00:19.077Z,98957.39
2018-10-02T16:02:48.231Z,98971.75
2018-10-02T16:05:17.392Z,98963.91
2018-10-02T16:07:46.520Z,98964.45
2018-10-02T16:10:15.693Z,98960.35
2018-10-02T16:12:44.817Z,98953.97
2018-10-02T16:15:13.961Z,98957.06
2018-10-02T16:17:43.138Z,98953.95
2018-10-02T16:20:12.310Z,98953.62
2018-10-02T16:22:41.473Z,98958.05
2018-10-02T16:25:10.657Z,98953.94
2018-10-02T16:27:39.874Z,98958.96
2018-10-02T16:30:08.968Z,98958.60
2018-10-02T16:32:38.110Z,98964.53
2018-10-02T16:35:07.410Z,98953.41
2018-10-02T16:37:36.663Z,98962.09
2018-10-02T16:40:05.889Z,98962.02
2018-10-02T16:42:35.075Z,98962.98
2018-10-02T16:45:04.208Z,98965.36
2018-10-02T16:47:33.406Z,98961.80
2018-10-02T16:50:02.558Z,98956.91
2018-10-02T16:52:31.707Z,98962.20
2018-10-02T16:55:01.205Z,98967.77
2018-10-02T16:57:30.389Z,98974.39
2018-10-02T16:59:59.525Z,98971.91
2018-10-02T17:02:28.699Z,98973.50
2018-10-02T17:04:58.820Z,98969.72
2018-10-02T17:07:27.993Z,98971.27
2018-10-02T17:09:57.589Z,98972.01
2018-10-02T17:12:26.765Z,98954.88
2018-10-02T17:14:55.933Z,98956.09
2018-10-02T17:17:25.106Z,98959.76
2018-10-02T17:19:54.251Z,98958.86
2018-10-02T17:22:23.395Z,98959.52
2018-10-02T17:24:52.609Z,98962.69
2018-10-02T17:27:23.288Z,98968.76
2018-10-02T17:29:52.416Z,98974.57
2018-10-02T17:32:21.585Z,98975.05
2018-10-02T17:34:50.721Z,98977.14
2018-10-02T17:37:19.909Z,98973.39
2018-10-02T17:39:49.334Z,98974.09
2018-10-02T17:42:18.556Z,98972.66
2018-10-02T17:44:47.689Z,98966.20
2018-10-02T17:47:17.240Z,98965.34
2018-10-02T17:49:46.513Z,98974.84
2018-10-02T17:52:15.695Z,98968.95
2018-10-02T17:54:45.599Z,98967.05
2018-10-02T17:57:14.708Z,98960.17
2018-10-02T17:59:43.877Z,98959.53
2018-10-02T18:02:13.036Z,98959.06
2018-10-02T18:04:42.162Z,98951.97
2018-10-02T18:07:11.520Z,98962.39
2018-10-02T18:09:41.350Z,98962.81
2018-10-02T18:12:10.783Z,98967.05
2018-10-02T18:14:39.905Z,98977.63
2018-10-02T18:17:09.812Z,98976.49
2018-10-02T18:19:39.027Z,98977.66
2018-10-02T18:22:08.192Z,98979.91
2018-10-02T18:24:37.669Z,98973.88
2018-10-02T18:27:07.018Z,98980.67
2018-10-02T18:29:36.141Z,98987.75
2018-10-02T18:32:05.327Z,98983.44
2018-10-02T18:34:34.512Z,98982.16
2018-10-02T18:37:03.631Z,98984.92
2018-10-02T18:39:32.857Z,98986.18
2018-10-02T18:42:02.011Z,98987.36
2018-10-02T18:44:31.134Z,98993.13
2018-10-02T18:47:00.661Z,98993.83
2018-10-02T18:49:29.882Z,98994.31
2018-10-02T18:51:59.015Z,98999.27
2018-10-02T18:54:28.360Z,99001.30
2018-10-02T18:56:59.461Z,98996.26
2018-10-02T18:59:28.661Z,98999.22
2018-10-02T19:01:57.862Z,98994.16
2018-10-02T19:04:26.986Z,99002.97
2018-10-02T19:06:56.229Z,99006.41
2018-10-02T19:09:25.388Z,98999.96
2018-10-02T19:12:00.710Z,99008.56
2018-10-02T19:14:29.896Z,99007.23
2018-10-02T19:16:59.031Z,99009.47
2018-10-02T19:19:33.731Z,99005.58
2018-10-02T19:22:02.858Z,99006.70
2018-10-02T19:24:32.039Z,99006.02
2018-10-02T19:27:01.157Z,99005.28
2018-10-02T19:29:30.287Z,99003.84
2018-10-02T19:32:29.912Z,99011.59
2018-10-02T19:34:59.041Z,99018.05
2018-10-02T19:38:37.158Z,99020.52
2018-10-02T19:41:06.496Z,99027.83
2018-10-02T19:43:35.616Z,99032.73
2018-10-02T19:46:10.054Z,99033.11
2018-10-02T19:48:39.190Z,99041.63
2018-10-02T19:51:13.677Z,99036.69
2018-10-02T19:53:42.802Z,99040.21
2018-10-02T19:56:11.926Z,99040.05
2018-10-02T19:58:41.109Z,99041.42
2018-10-02T20:01:10.283Z,99052.11
2018-10-02T20:03:39.473Z,99041.64
2018-10-02T20:06:08.629Z,99041.58
2018-10-02T20:08:39.430Z,99044.32
2018-10-02T20:11:08.806Z,99040.21
2018-10-02T20:13:38.161Z,99038.61
2018-10-02T20:16:07.534Z,99040.02
2018-10-02T20:18:36.663Z,99051.27
2018-10-02T20:21:05.944Z,99046.57
2018-10-02T20:23:35.386Z,99050.13
2018-10-02T20:26:04.564Z,99046.21
2018-10-02T20:28:33.731Z,99036.82
2018-10-02T20:31:02.955Z,99040.24
2018-10-02T20:33:32.114Z,99045.59
2018-10-02T20:36:01.352Z,99037.34
2018-10-02T20:38:30.472Z,99038.34
2018-10-02T20:40:59.661Z,99033.16
2018-10-02T20:43:28.816Z,99043.72
2018-10-02T20:45:57.951Z,99046.08
2018-10-02T20:48:27.153Z,99040.92
2018-10-02T20:50:56.326Z,99044.19
2018-10-02T20:53:25.479Z,99047.94
2018-10-02T20:55:54.705Z,99058.60
2018-10-02T20:58:23.957Z,99059.65
2018-10-02T21:00:53.117Z,99055.63
2018-10-02T21:03:22.272Z,99062.97
2018-10-02T21:05:51.509Z,99062.26
2018-10-02T21:08:20.699Z,99057.00
2018-10-02T21:10:49.813Z,99060.23
2018-10-02T21:13:18.941Z,99060.43
2018-10-02T21:15:48.082Z,99053.58
2018-10-02T21:18:17.260Z,99052.93
2018-10-02T21:20:46.416Z,99056.71
2018-10-02T21:23:15.539Z,99059.36
2018-10-02T21:25:44.681Z,99049.86
2018-10-02T21:28:13.890Z,99057.27
2018-10-02T21:30:43.114Z,99055.08
2018-10-02T21:33:12.256Z,99043.05
2018-10-02T21:35:41.381Z,99038.00
2018-10-02T21:38:10.506Z,99036.62
2018-10-02T21:40:39.628Z,99036.86
2018-10-02T21:43:08.966Z,99032.06
2018-10-02T21:45:38.091Z,99012.85
2018-10-02T21:48:07.262Z,99011.81
2018-10-02T21:50:36.425Z,99008.09
2018-10-02T21:53:05.717Z,99014.55
2018-10-02T21:55:34.863Z,99004.55
2018-10-02T21:58:03.987Z,99006.12
2018-10-02T22:00:34.115Z,99001.50
2018-10-02T22:03:03.327Z,99003.70
2018-10-02T22:05:32.466Z,99003.63
2018-10-02T22:08:01.600Z,98998.65
2018-10-02T22:10:30.734Z,98991.95
2018-10-02T22:12:59.861Z,98991.14
2018-10-02T22:15:29.147Z,98996.58
2018-10-02T22:17:58.226Z,99000.67
2018-10-02T22:20:27.418Z,98997.02
2018-10-02T22:22:56.550Z,98994.39
2018-10-02T22:25:25.687Z,98990.38
2018-10-02T22:27:54.831Z,98996.41
2018-10-02T22:30:23.974Z,98997.45
2018-10-02T22:32:53.080Z,99003.55
2018-10-02T22:35:22.244Z,98998.53
2018-10-02T22:37:51.407Z,98986.16
2018-10-02T22:40:20.523Z,98996.52
2018-10-02T22:42:49.693Z,98977.58
2018-10-02T22:45:18.823Z,98982.52
2018-10-02T22:47:47.942Z,98983.98
2018-10-02T22:50:17.093Z,98979.67
2018-10-02T22:52:46.275Z,98981.48
2018-10-02T22:55:15.433Z,98989.98
2018-10-02T22:57:44.620Z,98992.66
2018-10-02T23:00:13.777Z,98988.60
2018-10-02T23:02:42.962Z,98994.27
2018-10-02T23:05:12.107Z,98993.45
2018-10-02T23:07:41.257Z,98992.66
2018-10-02T23:10:10.426Z,98990.88
2018-10-02T23:12:39.626Z,98997.27
2018-10-02T23:15:10.437Z,98993.53
2018-10-02T23:17:39.661Z,98998.25
2018-10-02T23:20:08.812Z,98984.64
2018-10-02T23:22:37.932Z,98992.56
2018-10-02T23:25:07.377Z,99004.00
2018-10-02T23:27:36.540Z,99002.28
2018-10-02T23:30:05.814Z,99000.74
2018-10-02T23:32:35.044Z,99005.36
2018-10-02T23:35:04.207Z,99004.48
2018-10-02T23:37:33.345Z,99012.42
2018-10-02T23:40:02.534Z,99011.67
2018-10-02T23:42:31.706Z,99020.38
2018-10-02T23:45:00.812Z,99016.51
2018-10-02T23:47:29.945Z,99010.96
2018-10-02T23:49:59.097Z,99009.04
2018-10-02T23:52:28.211Z,99012.92
2018-10-02T23:54:57.366Z,99011.32
2018-10-02T23:57:26.518Z,99002.52
2018-10-02T23:59:55.655Z,99003.50
